Prairieville, LA

6:32 PM CST on February 14, 2016 (GMT -0600)
Stone Hedge | | Change Station
CLOSE
Current Station
Personal Weather Station
Location: Prairieville, LA
Elevation: 16 ft
Nearby Weather Stations

Elev 16 ft 30.29 °N, 90.90 °W | Updated 7 seconds ago

Overcast
Overcast
64.8 °F
Feels Like 64.8 °F
N
2.7
Wind Variable Wind from South
Gusts 6.3 mph

Today
High -- | Low -- °F
--% Chance of Precip.
Yesterday
High -- | Low -- °F
Precip. -- in
Pressure 30.03 in
Visibility 10.0 miles
Clouds Overcast 5500 ft
Dew Point 56 °F
Humidity 72%
Rainfall 0.00 in
Snow Depth Not available.
6:45 AM 5:50 PM
Waxing Crescent, 47% visible
METAR KL38 150015Z AUTO 16007KT 10SM OVC055 18/12 A3003 RMK AO2 T01820117
Pressure 30.03 in
Visibility 10.0 miles
Clouds Overcast 5500 ft
Dew Point 56 °F
Humidity 72%
Rainfall 0.00 in
Snow Depth Not available.
6:45 AM 5:50 PM
Waxing Crescent, 47% visible
METAR KL38 150015Z AUTO 16007KT 10SM OVC055 18/12 A3003 RMK AO2 T01820117

10-Day Weather Forecast

Almanac

Astronomy

Feb. 14, 2016 Rise Set
Actual Time
Civil Twilight
Nautical Twilight
Astronomical Twilight
Moon
Length of Visible Light
Length of Day
Tomorrow will be .
, % of the Moon is Illuminated

Today's Extremes

State Highs State Lows

Community

WunderPhotos

Upload Photos

1,892,950 photos uploaded!

WunderBlog® & News

Nearby

Air Quality

  Air Quality AQ Index Pollutant
Not available.

Snow Depth

Station Depth Elevation

Earthquake Activity

City Distance Mag. Time & Date
Minimum magnitude displayed is 2.5.

Coastal Water Temperatures

Place Temperature

Stations

Nearby Weather Stations

Station Location Temp. Windchill Dew Point Humidity Wind Precip. Elev Updated Type
                   

Watches & Warnings

There are currently no watches in effect.